createdAt,value
2023-05-24T00:02:36.755Z,69.74
2023-05-24T00:05:22.201Z,70.55
2023-05-24T00:08:07.984Z,69.85
2023-05-24T00:10:53.482Z,69.96
2023-05-24T00:13:38.768Z,70.68
2023-05-24T00:16:24.577Z,69.92
2023-05-24T00:19:09.953Z,70.16
2023-05-24T00:21:55.366Z,69.36
2023-05-24T00:24:40.738Z,69.96
2023-05-24T00:27:25.961Z,69.79
2023-05-24T00:30:12.099Z,69.17
2023-05-24T00:32:57.541Z,70.54
2023-05-24T00:35:43.199Z,69.54
2023-05-24T00:38:28.883Z,70.04
2023-05-24T00:41:14.685Z,70.22
2023-05-24T00:44:00.341Z,70.33
2023-05-24T00:46:47.660Z,70.30
2023-05-24T00:49:34.909Z,70.54
2023-05-24T00:52:20.998Z,70.31
2023-05-24T00:55:08.746Z,70.83
2023-05-24T00:57:55.340Z,70.77
2023-05-24T01:00:43.366Z,69.81
2023-05-24T01:03:29.370Z,69.77
2023-05-24T01:06:14.947Z,70.78
2023-05-24T01:09:07.017Z,70.81
2023-05-24T01:11:58.772Z,70.52
2023-05-24T01:15:14.983Z,71.30
2023-05-24T01:18:07.367Z,71.76
2023-05-24T01:21:06.238Z,71.84
2023-05-24T01:24:23.844Z,72.52
2023-05-24T01:27:13.065Z,72.41
2023-05-24T01:29:59.993Z,72.83
2023-05-24T01:32:46.281Z,73.28
2023-05-24T01:35:31.872Z,72.66
2023-05-24T01:38:17.338Z,72.75
2023-05-24T01:41:18.079Z,72.79
2023-05-24T01:44:14.659Z,72.82
2023-05-24T01:47:28.842Z,71.76
2023-05-24T01:50:34.529Z,72.37
2023-05-24T01:53:23.177Z,71.58
2023-05-24T01:56:11.275Z,70.64
2023-05-24T01:58:57.906Z,70.89
2023-05-24T02:01:43.559Z,71.25
2023-05-24T02:04:29.363Z,71.00
2023-05-24T02:07:14.936Z,70.90
2023-05-24T02:10:00.462Z,70.28
2023-05-24T02:12:46.051Z,71.71
2023-05-24T02:15:31.916Z,72.53
2023-05-24T02:18:17.348Z,72.34
2023-05-24T02:21:03.168Z,73.21
2023-05-24T02:23:48.977Z,73.90
2023-05-24T02:26:34.409Z,73.19
2023-05-24T02:29:19.958Z,72.84
2023-05-24T02:32:05.658Z,72.68
2023-05-24T02:34:50.943Z,71.92
2023-05-24T02:37:36.459Z,72.16
2023-05-24T02:40:22.053Z,71.95
2023-05-24T02:43:07.177Z,72.32
2023-05-24T02:45:52.400Z,72.43
2023-05-24T02:48:37.823Z,72.16
2023-05-24T02:51:23.198Z,71.87
2023-05-24T02:54:09.020Z,71.41
2023-05-24T02:56:54.197Z,71.38
2023-05-24T02:59:39.761Z,71.66
2023-05-24T03:02:25.488Z,71.38
2023-05-24T03:05:11.288Z,71.72
2023-05-24T03:07:57.445Z,70.86
2023-05-24T03:10:43.919Z,71.40
2023-05-24T03:13:30.699Z,71.19
2023-05-24T03:16:16.428Z,71.33
2023-05-24T03:19:02.256Z,71.58
2023-05-24T03:21:47.960Z,71.67
2023-05-24T03:24:33.139Z,71.93
2023-05-24T03:27:18.870Z,72.07
2023-05-24T03:30:05.409Z,72.61
2023-05-24T03:32:55.646Z,73.54
2023-05-24T03:35:41.177Z,73.53
2023-05-24T03:38:27.729Z,73.23
2023-05-24T03:41:13.254Z,74.01
2023-05-24T03:43:59.463Z,73.09
2023-05-24T03:46:46.681Z,74.00
2023-05-24T03:49:32.017Z,73.08
2023-05-24T03:52:17.590Z,74.05
2023-05-24T03:55:02.782Z,73.13
2023-05-24T03:57:48.005Z,74.76
2023-05-24T04:00:33.819Z,74.95
2023-05-24T04:03:20.361Z,75.02
2023-05-24T04:06:07.013Z,73.79
2023-05-24T04:08:52.588Z,72.69
2023-05-24T04:11:37.972Z,72.63
2023-05-24T04:14:23.459Z,72.58
2023-05-24T04:17:09.144Z,72.13
2023-05-24T04:19:55.577Z,72.92
2023-05-24T04:22:41.483Z,72.02
2023-05-24T04:25:26.971Z,71.37
2023-05-24T04:28:13.216Z,72.54
2023-05-24T04:30:58.362Z,72.80
2023-05-24T04:33:44.051Z,71.59
2023-05-24T04:36:29.284Z,71.48
2023-05-24T04:39:14.400Z,71.79
2023-05-24T04:41:59.643Z,72.92
2023-05-24T04:44:45.053Z,73.02
2023-05-24T04:47:30.903Z,72.45
2023-05-24T04:50:16.635Z,71.09
2023-05-24T04:53:02.189Z,70.75
2023-05-24T04:55:48.319Z,72.19
2023-05-24T04:58:33.661Z,71.56
2023-05-24T05:01:20.148Z,71.57
2023-05-24T05:04:06.205Z,71.57
2023-05-24T05:06:51.898Z,71.45
2023-05-24T05:09:37.378Z,70.85
2023-05-24T05:12:22.964Z,72.32
2023-05-24T05:15:09.265Z,70.58
2023-05-24T05:17:55.189Z,68.90
2023-05-24T05:20:42.086Z,68.60
2023-05-24T05:23:28.053Z,68.51
2023-05-24T05:26:13.713Z,68.42
2023-05-24T05:28:58.813Z,70.17
2023-05-24T05:31:44.139Z,69.45
2023-05-24T05:34:29.600Z,71.44
2023-05-24T05:37:14.877Z,70.82
2023-05-24T05:39:59.999Z,69.77
2023-05-24T05:42:45.227Z,70.40
2023-05-24T05:45:31.121Z,68.89
2023-05-24T05:48:16.392Z,67.85
2023-05-24T05:51:02.018Z,70.19
2023-05-24T05:53:47.347Z,68.94
2023-05-24T05:56:32.587Z,68.29
2023-05-24T05:59:18.181Z,67.84
2023-05-24T06:02:04.680Z,69.27
2023-05-24T06:04:50.407Z,68.54
2023-05-24T06:07:35.496Z,69.19
2023-05-24T06:10:20.887Z,69.45
2023-05-24T06:13:06.584Z,67.65
2023-05-24T06:15:52.037Z,66.62
2023-05-24T06:18:37.663Z,67.40
2023-05-24T06:21:22.606Z,68.98
2023-05-24T06:24:08.349Z,68.50
2023-05-24T06:26:53.919Z,68.85
2023-05-24T06:29:39.423Z,67.55
2023-05-24T06:32:24.913Z,67.92
2023-05-24T06:35:10.631Z,68.14
2023-05-24T06:37:56.024Z,67.99
2023-05-24T06:40:41.430Z,68.58
2023-05-24T06:43:27.120Z,66.61
2023-05-24T06:46:12.852Z,65.23
2023-05-24T06:48:58.328Z,66.50
2023-05-24T06:51:45.080Z,64.78
2023-05-24T06:54:30.503Z,65.36
2023-05-24T06:57:15.759Z,63.66
2023-05-24T07:00:01.042Z,64.36
2023-05-24T07:02:46.713Z,66.18
2023-05-24T07:05:33.333Z,66.86
2023-05-24T07:08:18.772Z,67.29
2023-05-24T07:11:03.981Z,67.17
2023-05-24T07:13:49.135Z,67.42
2023-05-24T07:16:34.915Z,68.57
2023-05-24T07:19:20.846Z,67.19
2023-05-24T07:22:06.220Z,65.65
2023-05-24T07:24:51.753Z,65.58
2023-05-24T07:27:37.187Z,64.37
2023-05-24T07:30:46.624Z,64.87
2023-05-24T07:33:27.972Z,66.15
2023-05-24T07:36:14.031Z,66.51
2023-05-24T07:38:59.188Z,63.50
2023-05-24T07:41:44.957Z,63.32
2023-05-24T07:44:30.188Z,65.92
2023-05-24T07:47:15.564Z,63.88
2023-05-24T07:50:00.854Z,63.42
2023-05-24T07:52:46.343Z,63.47
2023-05-24T07:55:31.992Z,62.73
2023-05-24T07:58:17.359Z,60.86
2023-05-24T08:01:02.501Z,63.73
2023-05-24T08:03:48.142Z,63.57
2023-05-24T08:06:33.595Z,63.38
2023-05-24T08:09:19.156Z,63.13
2023-05-24T08:12:06.649Z,60.70
2023-05-24T08:14:52.759Z,60.99
2023-05-24T08:17:40.205Z,61.36
2023-05-24T08:20:26.071Z,63.05
2023-05-24T08:23:11.603Z,62.82
2023-05-24T08:25:58.113Z,64.01
2023-05-24T08:28:43.783Z,61.90
2023-05-24T08:31:29.545Z,63.76
2023-05-24T08:34:15.307Z,63.08
2023-05-24T08:37:00.386Z,61.13
2023-05-24T08:39:46.443Z,57.05
2023-05-24T08:42:31.884Z,55.92
2023-05-24T08:45:18.314Z,55.93
2023-05-24T08:48:06.401Z,54.41
2023-05-24T08:50:53.333Z,54.57
2023-05-24T08:53:39.778Z,56.49
2023-05-24T08:56:26.283Z,57.98
2023-05-24T08:59:12.525Z,59.62
2023-05-24T09:01:57.833Z,58.75
2023-05-24T09:04:46.794Z,57.14
2023-05-24T09:07:33.287Z,59.53
2023-05-24T09:10:20.732Z,56.15
2023-05-24T09:13:07.692Z,52.45
2023-05-24T09:15:53.929Z,54.67
2023-05-24T09:18:40.829Z,55.96
2023-05-24T09:21:27.419Z,53.84
2023-05-24T09:24:12.716Z,55.03
2023-05-24T09:27:05.806Z,54.42
2023-05-24T09:29:51.281Z,54.52
2023-05-24T09:32:36.917Z,54.60
2023-05-24T09:35:22.279Z,51.67
2023-05-24T09:38:17.258Z,53.36
2023-05-24T09:41:07.916Z,53.21
2023-05-24T09:43:53.146Z,54.69
2023-05-24T09:46:38.870Z,50.96
2023-05-24T09:49:24.185Z,50.68
2023-05-24T09:52:14.245Z,55.43
2023-05-24T09:55:00.351Z,53.73
2023-05-24T09:57:50.916Z,48.61
2023-05-24T10:00:41.681Z,48.83
2023-05-24T10:03:27.184Z,50.61
2023-05-24T10:06:13.311Z,50.01
2023-05-24T10:08:59.213Z,48.74
2023-05-24T10:11:45.689Z,51.84
2023-05-24T10:14:36.901Z,49.62
2023-05-24T10:17:22.415Z,49.75
2023-05-24T10:20:08.147Z,52.64
2023-05-24T10:22:59.517Z,50.09
2023-05-24T10:25:52.134Z,49.45
2023-05-24T10:28:46.888Z,50.83
2023-05-24T10:31:40.439Z,51.61
2023-05-24T10:34:26.553Z,51.70
2023-05-24T10:37:12.213Z,51.41
2023-05-24T10:39:59.192Z,53.08
2023-05-24T10:42:44.664Z,52.23
2023-05-24T10:45:33.403Z,52.40
2023-05-24T10:48:24.654Z,53.58
2023-05-24T10:51:34.787Z,53.49
2023-05-24T10:54:25.242Z,52.26
2023-05-24T10:57:10.506Z,54.21
2023-05-24T10:59:56.640Z,53.08
2023-05-24T11:02:42.332Z,52.51
2023-05-24T11:05:48.560Z,50.30
2023-05-24T11:08:35.822Z,50.30
2023-05-24T11:11:28.674Z,50.58
2023-05-24T11:14:23.384Z,51.37
2023-05-24T11:17:08.908Z,51.42
2023-05-24T11:19:55.792Z,51.27
2023-05-24T11:22:41.824Z,50.04
2023-05-24T11:25:27.698Z,48.75
2023-05-24T11:28:13.114Z,50.80
2023-05-24T11:31:08.674Z,52.41
2023-05-24T11:33:53.937Z,51.21
2023-05-24T11:36:39.496Z,51.33
2023-05-24T11:39:29.529Z,52.77
2023-05-24T11:42:15.134Z,50.28
2023-05-24T11:45:00.677Z,52.69
2023-05-24T11:47:46.002Z,51.10
2023-05-24T11:50:42.251Z,51.64
2023-05-24T11:53:34.835Z,48.33
2023-05-24T11:56:20.322Z,49.87
2023-05-24T11:59:05.879Z,51.73
2023-05-24T12:01:58.003Z,51.75
2023-05-24T12:04:43.224Z,49.77
2023-05-24T12:07:29.600Z,47.07
2023-05-24T12:10:16.019Z,48.15
2023-05-24T12:13:03.710Z,50.15
2023-05-24T12:15:53.276Z,47.67
2023-05-24T12:18:48.425Z,42.33
2023-05-24T12:21:41.324Z,44.85
2023-05-24T12:24:27.685Z,44.30
2023-05-24T12:27:12.984Z,45.09
2023-05-24T12:30:06.437Z,45.81
2023-05-24T12:32:52.038Z,45.44
2023-05-24T12:35:40.572Z,45.81
2023-05-24T12:38:26.193Z,45.66
2023-05-24T12:41:14.113Z,45.40
2023-05-24T12:43:59.856Z,46.21
2023-05-24T12:46:45.050Z,46.59
2023-05-24T12:49:31.197Z,46.11
2023-05-24T12:52:17.760Z,45.25
2023-05-24T12:55:03.277Z,45.07
2023-05-24T12:57:48.582Z,46.64
2023-05-24T13:00:33.925Z,47.17
2023-05-24T13:03:19.291Z,45.95
2023-05-24T13:06:04.991Z,47.18
2023-05-24T13:08:50.357Z,45.17
2023-05-24T13:11:36.351Z,44.48
2023-05-24T13:14:21.707Z,43.37
2023-05-24T13:17:07.388Z,44.97
2023-05-24T13:19:52.842Z,45.07
2023-05-24T13:22:39.391Z,45.44
2023-05-24T13:25:24.925Z,45.15
2023-05-24T13:28:10.146Z,45.38
2023-05-24T13:30:55.705Z,45.59
2023-05-24T13:33:43.621Z,46.15
2023-05-24T13:36:28.993Z,45.93
2023-05-24T13:39:16.546Z,46.09
2023-05-24T13:42:02.742Z,45.82
2023-05-24T13:44:48.010Z,45.70
2023-05-24T13:47:39.875Z,45.07
2023-05-24T13:50:26.359Z,44.47
2023-05-24T13:53:12.201Z,43.75
2023-05-24T13:55:57.903Z,44.48
2023-05-24T13:58:43.105Z,42.09
2023-05-24T14:01:28.887Z,44.07
2023-05-24T14:04:14.529Z,43.02
2023-05-24T14:07:00.199Z,44.08
2023-05-24T14:09:46.799Z,43.50
2023-05-24T14:12:33.181Z,43.65
2023-05-24T14:15:18.444Z,42.53
2023-05-24T14:18:03.997Z,44.19
2023-05-24T14:20:49.130Z,43.71
2023-05-24T14:23:34.650Z,44.36
2023-05-24T14:26:21.208Z,43.04
2023-05-24T14:29:06.482Z,45.32
2023-05-24T14:31:52.184Z,43.11
2023-05-24T14:34:38.031Z,41.97
2023-05-24T14:37:23.353Z,42.95
2023-05-24T14:40:11.094Z,44.48
2023-05-24T14:42:58.271Z,42.77
2023-05-24T14:45:44.149Z,42.60
2023-05-24T14:48:29.758Z,43.39
2023-05-24T14:51:16.438Z,43.56
2023-05-24T14:54:02.010Z,44.23
2023-05-24T14:56:47.307Z,44.77
2023-05-24T14:59:32.522Z,42.68
2023-05-24T15:02:19.664Z,43.50
2023-05-24T15:05:05.421Z,41.62
2023-05-24T15:07:50.909Z,43.13
2023-05-24T15:10:36.790Z,45.35
2023-05-24T15:13:23.146Z,46.22
2023-05-24T15:16:09.817Z,47.88
2023-05-24T15:18:55.347Z,47.81
2023-05-24T15:21:40.467Z,44.54
2023-05-24T15:24:26.014Z,44.02
2023-05-24T15:27:11.721Z,44.71
2023-05-24T15:29:58.341Z,43.94
2023-05-24T15:32:43.866Z,44.39
2023-05-24T15:35:29.605Z,42.99
2023-05-24T15:38:15.040Z,44.05
2023-05-24T15:41:00.376Z,43.54
2023-05-24T15:43:46.075Z,45.12
2023-05-24T15:46:32.020Z,44.33
2023-05-24T15:49:17.931Z,43.87
2023-05-24T15:52:04.981Z,44.11
2023-05-24T15:54:51.028Z,41.08
2023-05-24T15:57:36.704Z,43.15
2023-05-24T16:00:22.344Z,44.24
2023-05-24T16:03:08.144Z,45.38
2023-05-24T16:05:53.901Z,44.36
2023-05-24T16:08:39.321Z,45.58
2023-05-24T16:11:25.046Z,45.71
2023-05-24T16:14:10.588Z,47.14
2023-05-24T16:16:58.572Z,47.41
2023-05-24T16:19:44.976Z,45.87
2023-05-24T16:22:30.549Z,46.43
2023-05-24T16:25:15.961Z,46.50
2023-05-24T16:28:01.478Z,46.39
2023-05-24T16:30:47.031Z,47.43
2023-05-24T16:33:32.614Z,45.83
2023-05-24T16:36:17.860Z,46.34
2023-05-24T16:39:03.130Z,47.27
2023-05-24T16:41:48.874Z,45.97
2023-05-24T16:44:34.320Z,46.96
2023-05-24T16:47:20.244Z,46.26
2023-05-24T16:50:06.361Z,47.42
2023-05-24T16:52:52.297Z,49.45
2023-05-24T16:55:37.654Z,49.70
2023-05-24T16:58:24.725Z,50.07
2023-05-24T17:01:10.229Z,50.60
2023-05-24T17:03:56.169Z,52.12
2023-05-24T17:06:41.730Z,53.91
2023-05-24T17:09:27.202Z,53.91
2023-05-24T17:12:12.412Z,53.21
2023-05-24T17:14:58.797Z,53.46
2023-05-24T17:17:44.450Z,53.65
2023-05-24T17:20:30.304Z,53.98
2023-05-24T17:23:15.669Z,54.53
2023-05-24T17:26:01.385Z,53.43
2023-05-24T17:28:46.708Z,53.26
2023-05-24T17:31:32.276Z,53.28
2023-05-24T17:34:18.086Z,53.81
2023-05-24T17:37:03.494Z,53.50
2023-05-24T17:39:48.807Z,53.97
2023-05-24T17:42:34.095Z,53.35
2023-05-24T17:45:19.387Z,52.27
2023-05-24T17:48:05.132Z,52.20
2023-05-24T17:50:50.697Z,51.87
2023-05-24T17:53:37.546Z,53.21
2023-05-24T17:56:22.616Z,53.61
2023-05-24T17:59:08.286Z,53.51
2023-05-24T18:01:53.662Z,53.88
2023-05-24T18:04:39.112Z,53.52
2023-05-24T18:07:24.782Z,53.04
2023-05-24T18:10:10.806Z,53.46
2023-05-24T18:12:56.247Z,53.56
2023-05-24T18:15:42.326Z,53.70
2023-05-24T18:18:28.485Z,53.91
2023-05-24T18:21:13.779Z,53.90
2023-05-24T18:23:59.304Z,54.32
2023-05-24T18:26:47.234Z,55.29
2023-05-24T18:29:32.647Z,55.03
2023-05-24T18:32:18.382Z,54.57
2023-05-24T18:35:03.856Z,54.70
2023-05-24T18:37:49.811Z,54.60
2023-05-24T18:40:35.128Z,54.89
2023-05-24T18:43:20.779Z,55.53
2023-05-24T18:46:07.624Z,55.21
2023-05-24T18:48:53.586Z,55.11
2023-05-24T18:51:39.519Z,55.31
2023-05-24T18:54:25.631Z,55.87
2023-05-24T18:57:11.329Z,56.03
2023-05-24T18:59:56.822Z,55.59
2023-05-24T19:02:42.164Z,55.95
2023-05-24T19:05:28.385Z,56.20
2023-05-24T19:08:13.803Z,57.56
2023-05-24T19:10:59.511Z,57.16
2023-05-24T19:13:44.998Z,56.97
2023-05-24T19:16:31.713Z,56.90
2023-05-24T19:19:17.211Z,56.32
2023-05-24T19:22:02.838Z,56.24
2023-05-24T19:24:48.162Z,56.30
2023-05-24T19:27:36.252Z,56.23
2023-05-24T19:30:24.293Z,56.67
2023-05-24T19:33:09.904Z,57.10
2023-05-24T19:35:55.806Z,57.52
2023-05-24T19:38:41.237Z,56.96
2023-05-24T19:41:26.855Z,57.00
2023-05-24T19:44:12.116Z,57.13
2023-05-24T19:46:57.758Z,57.92
2023-05-24T19:49:43.427Z,57.74
2023-05-24T19:52:28.745Z,57.90
2023-05-24T19:55:14.156Z,57.62
2023-05-24T19:57:59.473Z,57.72
2023-05-24T20:00:45.046Z,57.29
2023-05-24T20:03:30.957Z,57.20
2023-05-24T20:06:16.923Z,57.43
2023-05-24T20:09:02.504Z,57.63
2023-05-24T20:11:48.931Z,59.34
2023-05-24T20:14:34.246Z,59.22
2023-05-24T20:17:20.136Z,59.23
2023-05-24T20:20:06.315Z,60.11
2023-05-24T20:22:52.101Z,59.33
2023-05-24T20:25:37.529Z,58.81
2023-05-24T20:28:30.759Z,60.75
2023-05-24T20:31:17.342Z,62.20
2023-05-24T20:34:03.146Z,62.23
2023-05-24T20:36:48.226Z,63.31
2023-05-24T20:39:33.873Z,62.42
2023-05-24T20:42:19.582Z,64.06
2023-05-24T20:45:05.690Z,62.61
2023-05-24T20:47:51.208Z,64.19
2023-05-24T20:50:36.927Z,64.52
2023-05-24T20:53:22.428Z,66.24
2023-05-24T20:56:07.839Z,66.87
2023-05-24T20:58:53.380Z,65.44
2023-05-24T21:01:39.085Z,65.30
2023-05-24T21:04:24.751Z,64.18
2023-05-24T21:07:10.171Z,63.96
2023-05-24T21:09:55.745Z,63.47
2023-05-24T21:12:41.294Z,63.17
2023-05-24T21:15:26.861Z,62.98
2023-05-24T21:18:12.372Z,62.95
2023-05-24T21:20:57.797Z,65.18
2023-05-24T21:23:43.281Z,66.69
2023-05-24T21:26:28.684Z,65.42
2023-05-24T21:29:14.120Z,67.88
2023-05-24T21:31:59.546Z,67.00
2023-05-24T21:34:45.117Z,67.86
2023-05-24T21:37:30.957Z,67.50
2023-05-24T21:40:16.603Z,66.57
2023-05-24T21:43:02.134Z,67.25
2023-05-24T21:45:47.618Z,67.27
2023-05-24T21:48:33.213Z,68.14
2023-05-24T21:51:18.822Z,67.47
2023-05-24T21:54:04.441Z,67.05
2023-05-24T21:56:49.821Z,66.07
2023-05-24T21:59:36.067Z,66.45
2023-05-24T22:02:22.070Z,66.32
2023-05-24T22:05:07.866Z,66.40
2023-05-24T22:07:53.227Z,67.51
2023-05-24T22:10:38.646Z,66.89
2023-05-24T22:13:24.222Z,68.42
2023-05-24T22:16:09.512Z,68.40
2023-05-24T22:18:55.772Z,68.20
2023-05-24T22:21:41.401Z,67.83
2023-05-24T22:24:27.270Z,67.44
2023-05-24T22:27:13.304Z,67.67
2023-05-24T22:29:58.761Z,67.07
2023-05-24T22:32:44.465Z,67.60
2023-05-24T22:35:30.196Z,68.26
2023-05-24T22:38:15.923Z,68.48
2023-05-24T22:41:01.631Z,68.32
2023-05-24T22:43:46.931Z,68.72
2023-05-24T22:46:32.680Z,68.66
2023-05-24T22:49:18.191Z,69.69
2023-05-24T22:52:03.571Z,68.97
2023-05-24T22:54:48.741Z,68.75
2023-05-24T22:57:34.330Z,68.68
2023-05-24T23:00:20.403Z,69.92
2023-05-24T23:03:07.853Z,70.19
2023-05-24T23:05:53.249Z,70.68
2023-05-24T23:08:39.253Z,70.10
2023-05-24T23:11:24.934Z,70.50
2023-05-24T23:14:10.665Z,70.01
2023-05-24T23:16:56.972Z,70.41
2023-05-24T23:19:43.076Z,70.74
2023-05-24T23:22:28.528Z,71.70
2023-05-24T23:25:13.948Z,70.44
2023-05-24T23:28:00.555Z,70.82
2023-05-24T23:30:46.378Z,70.33
2023-05-24T23:33:31.720Z,70.68
2023-05-24T23:36:17.645Z,70.35
2023-05-24T23:39:02.843Z,69.71
2023-05-24T23:41:48.243Z,69.56
2023-05-24T23:44:33.375Z,69.66
2023-05-24T23:47:18.860Z,69.75
2023-05-24T23:50:04.857Z,69.77
2023-05-24T23:52:50.718Z,69.64
2023-05-24T23:55:36.077Z,66.70
2023-05-24T23:58:21.760Z,69.97
